DAL242 KDFW-KATL
Flight info
| Callsign | DAL242 |
|---|---|
| Flight time | 1h 24m |
| Altitude | 39000 |
| Route | DALL4 EIC ORRKK SMAWG HOBTT ENSLL EAGYL YURII |
| Aircraft | L101/H-SDFI/S |
Departure
| Time | 2026-05-06 21:37 |
|---|---|
| Airport | Dallas Fort Worth International Airport (KDFW) |
Arrival
| Time | 2026-05-06 23:01 |
|---|---|
| Airport | Hartsfield Jackson Atlanta International Airport (KATL) |
| Time | Latitude | Longitude | Altitude | Speed | Heading |
|---|---|---|---|---|---|
| 2026-05-06 21:05 | 32.89084 | -97.03508 | 589 ft | 0 kts | 262° |
| 2026-05-06 21:24 | 32.89085 | -97.03503 | 589 ft | 3 kts | 262° |
| 2026-05-06 21:25 | 32.89090 | -97.03472 | 589 ft | 3 kts | 250° |
| 2026-05-06 21:25 | 32.89102 | -97.03445 | 589 ft | 3 kts | 218° |
| 2026-05-06 21:25 | 32.89118 | -97.03437 | 589 ft | 0 kts | 178° |
| 2026-05-06 21:31 | 32.89096 | -97.03435 | 589 ft | 6 kts | 177° |
| 2026-05-06 21:31 | 32.89050 | -97.03412 | 589 ft | 9 kts | 128° |
| 2026-05-06 21:31 | 32.89035 | -97.03347 | 589 ft | 9 kts | 107° |
| 2026-05-06 21:32 | 32.88970 | -97.03320 | 587 ft | 13 kts | 180° |
| 2026-05-06 21:32 | 32.88752 | -97.03322 | 588 ft | 14 kts | 180° |
| 2026-05-06 21:32 | 32.88651 | -97.03322 | 587 ft | 17 kts | 180° |
| 2026-05-06 21:33 | 32.88529 | -97.03316 | 581 ft | 13 kts | 164° |
| 2026-05-06 21:33 | 32.88432 | -97.03285 | 581 ft | 8 kts | 181° |
| 2026-05-06 21:33 | 32.88363 | -97.03288 | 583 ft | 12 kts | 181° |
| 2026-05-06 21:33 | 32.88267 | -97.03289 | 584 ft | 16 kts | 180° |
| 2026-05-06 21:34 | 32.88140 | -97.03290 | 580 ft | 21 kts | 180° |
| 2026-05-06 21:34 | 32.88013 | -97.03290 | 583 ft | 17 kts | 180° |
| 2026-05-06 21:34 | 32.87915 | -97.03269 | 584 ft | 11 kts | 129° |
| 2026-05-06 21:34 | 32.87904 | -97.03170 | 585 ft | 14 kts | 89° |
| 2026-05-06 21:35 | 32.87906 | -97.03047 | 582 ft | 10 kts | 82° |
| 2026-05-06 21:35 | 32.87947 | -97.03008 | 582 ft | 0 kts | 359° |
| 2026-05-06 21:37 | 32.88047 | -97.03008 | 579 ft | 45 kts | 0° |
| 2026-05-06 21:37 | 32.88684 | -97.03004 | 582 ft | 137 kts | 0° |
| 2026-05-06 21:37 | 32.89780 | -97.03010 | 1356 ft | 158 kts | 1° |
| 2026-05-06 21:38 | 32.90897 | -97.03018 | 2370 ft | 164 kts | 1° |
| 2026-05-06 21:38 | 32.92011 | -97.02831 | 2866 ft | 166 kts | 13° |
| 2026-05-06 21:38 | 32.92789 | -97.02594 | 3135 ft | 175 kts | 16° |
| 2026-05-06 21:38 | 32.94161 | -97.01509 | 3781 ft | 196 kts | 47° |
| 2026-05-06 21:39 | 32.94656 | -96.99873 | 4004 ft | 232 kts | 85° |
| 2026-05-06 21:39 | 32.94325 | -96.97840 | 4017 ft | 274 kts | 108° |
| 2026-05-06 21:39 | 32.93500 | -96.95568 | 4016 ft | 314 kts | 115° |
| 2026-05-06 21:39 | 32.92855 | -96.94047 | 4508 ft | 295 kts | 118° |
| 2026-05-06 21:40 | 32.91915 | -96.91886 | 5279 ft | 300 kts | 118° |
| 2026-05-06 21:40 | 32.90954 | -96.89635 | 6001 ft | 305 kts | 118° |
| 2026-05-06 21:40 | 32.90028 | -96.87393 | 6975 ft | 298 kts | 118° |
| 2026-05-06 21:40 | 32.89147 | -96.85189 | 7913 ft | 294 kts | 118° |
| 2026-05-06 21:41 | 32.88274 | -96.82951 | 8453 ft | 304 kts | 118° |
| 2026-05-06 21:41 | 32.87372 | -96.80660 | 8937 ft | 314 kts | 120° |
| 2026-05-06 21:41 | 32.86359 | -96.78329 | 9563 ft | 319 kts | 122° |
| 2026-05-06 21:41 | 32.85279 | -96.75950 | 9950 ft | 335 kts | 122° |
| 2026-05-06 21:42 | 32.84123 | -96.73459 | 10184 ft | 351 kts | 123° |
| 2026-05-06 21:42 | 32.82910 | -96.70860 | 10744 ft | 366 kts | 123° |
| 2026-05-06 21:42 | 32.81688 | -96.68159 | 11475 ft | 378 kts | 118° |
| 2026-05-06 21:42 | 32.80937 | -96.65103 | 12195 ft | 394 kts | 103° |
| 2026-05-06 21:43 | 32.80586 | -96.61827 | 12968 ft | 403 kts | 99° |
| 2026-05-06 21:43 | 32.80303 | -96.58473 | 13732 ft | 412 kts | 100° |
| 2026-05-06 21:43 | 32.79961 | -96.55042 | 14329 ft | 424 kts | 102° |
| 2026-05-06 21:43 | 32.79546 | -96.51532 | 14913 ft | 434 kts | 103° |
| 2026-05-06 21:44 | 32.79083 | -96.47983 | 15542 ft | 443 kts | 104° |
| 2026-05-06 21:44 | 32.78582 | -96.44314 | 16077 ft | 456 kts | 104° |
| 2026-05-06 21:44 | 32.78056 | -96.40534 | 16561 ft | 470 kts | 105° |
| 2026-05-06 21:44 | 32.77517 | -96.36667 | 17269 ft | 477 kts | 105° |
| 2026-05-06 21:45 | 32.76979 | -96.32770 | 18247 ft | 478 kts | 105° |
| 2026-05-06 21:45 | 32.76447 | -96.28869 | 19191 ft | 478 kts | 105° |
| 2026-05-06 21:45 | 32.75910 | -96.24934 | 19884 ft | 487 kts | 105° |
| 2026-05-06 21:45 | 32.75354 | -96.20910 | 20357 ft | 501 kts | 105° |
| 2026-05-06 21:46 | 32.74780 | -96.16780 | 20871 ft | 513 kts | 105° |
| 2026-05-06 21:46 | 32.74225 | -96.12782 | 21614 ft | 518 kts | 104° |
| 2026-05-06 21:46 | 32.73644 | -96.08566 | 22661 ft | 516 kts | 104° |
| 2026-05-06 21:46 | 32.73070 | -96.04374 | 23903 ft | 512 kts | 104° |
| 2026-05-06 21:47 | 32.72494 | -96.00175 | 24713 ft | 517 kts | 104° |
| 2026-05-06 21:47 | 32.71905 | -95.95911 | 25202 ft | 529 kts | 104° |
| 2026-05-06 21:47 | 32.71298 | -95.91550 | 25611 ft | 543 kts | 104° |
| 2026-05-06 21:47 | 32.70675 | -95.87076 | 26176 ft | 552 kts | 104° |
| 2026-05-06 21:48 | 32.70053 | -95.82570 | 27006 ft | 553 kts | 104° |
| 2026-05-06 21:48 | 32.69438 | -95.78074 | 28043 ft | 550 kts | 105° |
| 2026-05-06 21:48 | 32.68833 | -95.73601 | 28965 ft | 551 kts | 103° |
| 2026-05-06 21:48 | 32.68544 | -95.69060 | 29311 ft | 568 kts | 95° |
| 2026-05-06 21:49 | 32.68597 | -95.64287 | 29407 ft | 587 kts | 91° |
| 2026-05-06 21:49 | 32.68824 | -95.59336 | 29798 ft | 593 kts | 89° |
| 2026-05-06 21:49 | 32.69118 | -95.54526 | 30664 ft | 590 kts | 89° |
| 2026-05-06 21:49 | 32.69435 | -95.49690 | 31599 ft | 584 kts | 89° |
| 2026-05-06 21:50 | 32.69750 | -95.44886 | 32387 ft | 583 kts | 89° |
| 2026-05-06 21:50 | 32.70055 | -95.40098 | 33143 ft | 581 kts | 89° |
| 2026-05-06 21:50 | 32.70338 | -95.35320 | 33915 ft | 577 kts | 90° |
| 2026-05-06 21:50 | 32.70602 | -95.30562 | 34463 ft | 577 kts | 90° |
| 2026-05-06 21:51 | 32.70853 | -95.25818 | 34919 ft | 579 kts | 90° |
| 2026-05-06 21:51 | 32.71099 | -95.21026 | 35399 ft | 580 kts | 90° |
| 2026-05-06 21:51 | 32.71341 | -95.16242 | 35883 ft | 580 kts | 90° |
| 2026-05-06 21:51 | 32.71581 | -95.11454 | 36376 ft | 581 kts | 90° |
| 2026-05-06 21:52 | 32.71820 | -95.06671 | 36881 ft | 581 kts | 90° |
| 2026-05-06 21:52 | 32.72057 | -95.01874 | 37363 ft | 582 kts | 90° |
| 2026-05-06 21:52 | 32.72288 | -94.97133 | 37841 ft | 582 kts | 90° |
| 2026-05-06 21:52 | 32.72521 | -94.92327 | 38290 ft | 584 kts | 90° |
| 2026-05-06 21:53 | 32.72751 | -94.87498 | 38662 ft | 587 kts | 90° |
| 2026-05-06 21:53 | 32.72977 | -94.82691 | 38823 ft | 590 kts | 90° |
| 2026-05-06 21:53 | 32.73432 | -94.72946 | 38945 ft | 589 kts | 90° |
| 2026-05-06 21:54 | 32.73877 | -94.63208 | 38950 ft | 592 kts | 90° |
| 2026-05-06 21:54 | 32.74315 | -94.53428 | 38942 ft | 593 kts | 90° |
| 2026-05-06 21:55 | 32.74743 | -94.43641 | 38951 ft | 592 kts | 91° |
| 2026-05-06 21:55 | 32.75163 | -94.33864 | 38955 ft | 590 kts | 91° |
| 2026-05-06 21:56 | 32.75571 | -94.24135 | 38952 ft | 590 kts | 91° |
| 2026-05-06 21:56 | 32.75967 | -94.14418 | 38949 ft | 589 kts | 91° |
| 2026-05-06 21:57 | 32.76349 | -94.04751 | 38943 ft | 589 kts | 91° |
| 2026-05-06 21:57 | 32.76724 | -93.94974 | 38941 ft | 589 kts | 91° |
| 2026-05-06 21:58 | 32.77080 | -93.85314 | 38943 ft | 588 kts | 91° |
| 2026-05-06 21:58 | 32.77148 | -93.75617 | 38936 ft | 585 kts | 96° |
| 2026-05-06 21:59 | 32.76943 | -93.65948 | 38949 ft | 584 kts | 96° |
| 2026-05-06 21:59 | 32.76795 | -93.56286 | 38951 ft | 584 kts | 95° |
| 2026-05-06 22:00 | 32.76636 | -93.46680 | 38962 ft | 584 kts | 96° |
| 2026-05-06 22:00 | 32.76460 | -93.37038 | 38967 ft | 584 kts | 96° |
| 2026-05-06 22:01 | 32.76277 | -93.27389 | 38968 ft | 584 kts | 96° |
| 2026-05-06 22:01 | 32.76087 | -93.17745 | 38965 ft | 584 kts | 96° |
| 2026-05-06 22:02 | 32.75890 | -93.08102 | 38960 ft | 584 kts | 96° |
| 2026-05-06 22:02 | 32.75684 | -92.98456 | 38952 ft | 584 kts | 96° |
| 2026-05-06 22:03 | 32.75472 | -92.88807 | 38953 ft | 585 kts | 96° |
| 2026-05-06 22:03 | 32.75252 | -92.79146 | 38952 ft | 585 kts | 96° |
| 2026-05-06 22:04 | 32.75025 | -92.69482 | 38951 ft | 585 kts | 96° |
| 2026-05-06 22:04 | 32.74792 | -92.59883 | 38952 ft | 586 kts | 96° |
| 2026-05-06 22:05 | 32.74549 | -92.50206 | 38954 ft | 586 kts | 96° |
| 2026-05-06 22:05 | 32.74298 | -92.40510 | 38949 ft | 586 kts | 96° |
| 2026-05-06 22:06 | 32.74041 | -92.30823 | 38952 ft | 586 kts | 96° |
| 2026-05-06 22:06 | 32.73775 | -92.21131 | 38949 ft | 587 kts | 96° |
| 2026-05-06 22:07 | 32.73502 | -92.11437 | 38968 ft | 587 kts | 96° |
| 2026-05-06 22:07 | 32.73224 | -92.01799 | 38976 ft | 588 kts | 96° |
| 2026-05-06 22:08 | 32.72936 | -91.92105 | 38979 ft | 587 kts | 96° |
| 2026-05-06 22:08 | 32.72641 | -91.82398 | 38944 ft | 588 kts | 97° |
| 2026-05-06 22:09 | 32.72337 | -91.72690 | 38947 ft | 588 kts | 97° |
| 2026-05-06 22:09 | 32.72027 | -91.62971 | 38946 ft | 588 kts | 97° |
| 2026-05-06 22:10 | 32.71708 | -91.53272 | 38917 ft | 588 kts | 97° |
| 2026-05-06 22:10 | 32.71389 | -91.43625 | 38891 ft | 582 kts | 97° |
| 2026-05-06 22:11 | 32.71059 | -91.34045 | 38870 ft | 580 kts | 97° |
| 2026-05-06 22:11 | 32.70721 | -91.24533 | 38868 ft | 579 kts | 97° |
| 2026-05-06 22:12 | 32.70376 | -91.14949 | 38870 ft | 579 kts | 97° |
| 2026-05-06 22:12 | 32.70029 | -91.05424 | 38880 ft | 575 kts | 98° |
| 2026-05-06 22:13 | 32.69673 | -90.95947 | 38903 ft | 574 kts | 98° |
| 2026-05-06 22:13 | 32.69309 | -90.86474 | 38944 ft | 573 kts | 98° |
| 2026-05-06 22:14 | 32.68942 | -90.77071 | 38944 ft | 574 kts | 98° |
| 2026-05-06 22:14 | 32.68568 | -90.67626 | 38934 ft | 570 kts | 98° |
| 2026-05-06 22:15 | 32.68190 | -90.58244 | 38951 ft | 569 kts | 98° |
| 2026-05-06 22:15 | 32.67801 | -90.48851 | 38946 ft | 569 kts | 98° |
| 2026-05-06 22:16 | 32.67407 | -90.39465 | 38949 ft | 569 kts | 98° |
| 2026-05-06 22:16 | 32.67009 | -90.30097 | 38930 ft | 567 kts | 97° |
| 2026-05-06 22:17 | 32.66605 | -90.20754 | 38924 ft | 565 kts | 97° |
| 2026-05-06 22:17 | 32.66191 | -90.11432 | 38924 ft | 565 kts | 97° |
| 2026-05-06 22:18 | 32.65771 | -90.02108 | 38927 ft | 565 kts | 97° |
| 2026-05-06 22:18 | 32.65343 | -89.92776 | 38941 ft | 569 kts | 97° |
| 2026-05-06 22:19 | 32.64911 | -89.83428 | 38932 ft | 571 kts | 97° |
| 2026-05-06 22:19 | 32.64472 | -89.73997 | 38934 ft | 572 kts | 97° |
| 2026-05-06 22:20 | 32.64022 | -89.64580 | 38931 ft | 572 kts | 97° |
| 2026-05-06 22:20 | 32.63564 | -89.55157 | 38933 ft | 571 kts | 97° |
| 2026-05-06 22:21 | 32.63099 | -89.45743 | 38923 ft | 571 kts | 97° |
| 2026-05-06 22:21 | 32.62630 | -89.36393 | 38920 ft | 571 kts | 97° |
| 2026-05-06 22:22 | 32.62151 | -89.26984 | 38910 ft | 571 kts | 97° |
| 2026-05-06 22:22 | 32.61664 | -89.17588 | 38887 ft | 570 kts | 97° |
| 2026-05-06 22:23 | 32.61178 | -89.08285 | 38899 ft | 561 kts | 97° |
| 2026-05-06 22:23 | 32.60687 | -88.99076 | 38944 ft | 558 kts | 97° |
| 2026-05-06 22:24 | 32.60187 | -88.89895 | 38950 ft | 557 kts | 97° |
| 2026-05-06 22:24 | 32.59683 | -88.80724 | 38943 ft | 557 kts | 97° |
| 2026-05-06 22:25 | 32.59261 | -88.73077 | 38931 ft | 559 kts | 97° |
| 2026-05-06 22:25 | 32.58663 | -88.62379 | 38931 ft | 560 kts | 97° |
| 2026-05-06 22:26 | 32.58142 | -88.53176 | 38933 ft | 559 kts | 97° |
| 2026-05-06 22:26 | 32.57698 | -88.45465 | 38932 ft | 559 kts | 96° |
| 2026-05-06 22:27 | 32.57160 | -88.36244 | 38928 ft | 561 kts | 96° |
| 2026-05-06 22:27 | 32.56625 | -88.27087 | 38923 ft | 560 kts | 96° |
| 2026-05-06 22:28 | 32.56077 | -88.17882 | 38925 ft | 560 kts | 96° |
| 2026-05-06 22:28 | 32.55520 | -88.08662 | 38933 ft | 560 kts | 96° |
| 2026-05-06 22:29 | 32.54984 | -87.99433 | 38906 ft | 563 kts | 92° |
| 2026-05-06 22:29 | 32.55262 | -87.94809 | 38875 ft | 564 kts | 79° |
| 2026-05-06 22:29 | 32.56021 | -87.90234 | 38927 ft | 564 kts | 78° |
| 2026-05-06 22:30 | 32.57307 | -87.81028 | 38917 ft | 566 kts | 81° |
| 2026-05-06 22:30 | 32.58698 | -87.71831 | 38913 ft | 565 kts | 78° |
| 2026-05-06 22:31 | 32.60345 | -87.62702 | 38902 ft | 568 kts | 76° |
| 2026-05-06 22:31 | 32.62022 | -87.53568 | 38906 ft | 571 kts | 76° |
| 2026-05-06 22:32 | 32.63718 | -87.44354 | 38902 ft | 572 kts | 76° |
| 2026-05-06 22:32 | 32.65416 | -87.35146 | 38908 ft | 571 kts | 76° |
| 2026-05-06 22:33 | 32.67112 | -87.25918 | 38911 ft | 573 kts | 76° |
| 2026-05-06 22:33 | 32.68806 | -87.16679 | 38916 ft | 573 kts | 76° |
| 2026-05-06 22:34 | 32.70495 | -87.07423 | 38918 ft | 573 kts | 76° |
| 2026-05-06 22:34 | 32.72176 | -86.98166 | 38916 ft | 573 kts | 76° |
| 2026-05-06 22:35 | 32.73849 | -86.88903 | 38914 ft | 574 kts | 76° |
| 2026-05-06 22:35 | 32.75524 | -86.79609 | 38911 ft | 575 kts | 76° |
| 2026-05-06 22:36 | 32.77191 | -86.70316 | 38923 ft | 575 kts | 76° |
| 2026-05-06 22:36 | 32.78852 | -86.61007 | 38931 ft | 575 kts | 76° |
| 2026-05-06 22:37 | 32.80504 | -86.51702 | 38939 ft | 576 kts | 76° |
| 2026-05-06 22:37 | 32.82145 | -86.42428 | 38947 ft | 576 kts | 76° |
| 2026-05-06 22:38 | 32.83794 | -86.33075 | 38407 ft | 578 kts | 76° |
| 2026-05-06 22:38 | 32.84615 | -86.28400 | 37856 ft | 580 kts | 76° |
| 2026-05-06 22:38 | 32.85442 | -86.23681 | 37286 ft | 584 kts | 76° |
| 2026-05-06 22:39 | 32.86267 | -86.18954 | 36723 ft | 580 kts | 76° |
| 2026-05-06 22:39 | 32.87078 | -86.14284 | 36160 ft | 573 kts | 76° |
| 2026-05-06 22:39 | 32.87881 | -86.09651 | 35628 ft | 570 kts | 76° |
| 2026-05-06 22:39 | 32.88673 | -86.05079 | 35118 ft | 570 kts | 76° |
| 2026-05-06 22:40 | 32.89473 | -86.00451 | 34597 ft | 566 kts | 76° |
| 2026-05-06 22:40 | 32.90259 | -85.95889 | 34092 ft | 562 kts | 77° |
| 2026-05-06 22:40 | 32.91038 | -85.91357 | 33533 ft | 556 kts | 77° |
| 2026-05-06 22:40 | 32.91808 | -85.86861 | 32991 ft | 555 kts | 77° |
| 2026-05-06 22:41 | 32.93378 | -85.77708 | 31880 ft | 567 kts | 77° |
| 2026-05-06 22:41 | 32.94163 | -85.73110 | 31350 ft | 563 kts | 77° |
| 2026-05-06 22:41 | 32.94937 | -85.68556 | 30827 ft | 559 kts | 77° |
| 2026-05-06 22:42 | 32.95702 | -85.64034 | 30323 ft | 555 kts | 77° |
| 2026-05-06 22:42 | 32.96460 | -85.59550 | 29773 ft | 550 kts | 77° |
| 2026-05-06 22:42 | 32.97209 | -85.55112 | 29190 ft | 545 kts | 77° |
| 2026-05-06 22:42 | 32.97951 | -85.50699 | 28585 ft | 540 kts | 77° |
| 2026-05-06 22:43 | 32.98686 | -85.46321 | 27827 ft | 536 kts | 77° |
| 2026-05-06 22:43 | 32.99411 | -85.41986 | 27060 ft | 530 kts | 77° |
| 2026-05-06 22:43 | 33.00140 | -85.37633 | 26336 ft | 543 kts | 77° |
| 2026-05-06 22:43 | 33.00883 | -85.33196 | 25605 ft | 546 kts | 77° |
| 2026-05-06 22:44 | 33.01628 | -85.28830 | 24934 ft | 543 kts | 75° |
| 2026-05-06 22:44 | 33.02786 | -85.24592 | 24209 ft | 533 kts | 61° |
| 2026-05-06 22:44 | 33.04711 | -85.20902 | 23518 ft | 517 kts | 47° |
| 2026-05-06 22:44 | 33.07025 | -85.17657 | 22776 ft | 511 kts | 43° |
| 2026-05-06 22:45 | 33.09341 | -85.14447 | 22030 ft | 509 kts | 45° |
| 2026-05-06 22:45 | 33.11575 | -85.11195 | 21073 ft | 504 kts | 46° |
| 2026-05-06 22:45 | 33.13779 | -85.07989 | 20088 ft | 496 kts | 46° |
| 2026-05-06 22:45 | 33.16010 | -85.04893 | 19157 ft | 487 kts | 44° |
| 2026-05-06 22:46 | 33.18260 | -85.01918 | 18232 ft | 478 kts | 43° |
| 2026-05-06 22:46 | 33.20500 | -84.99028 | 17214 ft | 471 kts | 43° |
| 2026-05-06 22:46 | 33.22704 | -84.96169 | 16222 ft | 464 kts | 44° |
| 2026-05-06 22:46 | 33.24863 | -84.93335 | 15269 ft | 458 kts | 45° |
| 2026-05-06 22:47 | 33.26989 | -84.90538 | 14379 ft | 451 kts | 45° |
| 2026-05-06 22:47 | 33.29089 | -84.87791 | 13703 ft | 446 kts | 45° |
| 2026-05-06 22:47 | 33.31144 | -84.85122 | 12998 ft | 425 kts | 44° |
| 2026-05-06 22:47 | 33.33145 | -84.82654 | 12490 ft | 402 kts | 42° |
| 2026-05-06 22:48 | 33.35086 | -84.80389 | 12251 ft | 376 kts | 41° |
| 2026-05-06 22:48 | 33.36904 | -84.78283 | 12109 ft | 352 kts | 41° |
| 2026-05-06 22:48 | 33.38602 | -84.76289 | 12057 ft | 337 kts | 41° |
| 2026-05-06 22:48 | 33.40279 | -84.74317 | 12043 ft | 338 kts | 41° |
| 2026-05-06 22:49 | 33.41895 | -84.72420 | 12018 ft | 318 kts | 41° |
| 2026-05-06 22:49 | 33.43441 | -84.70601 | 12011 ft | 297 kts | 40° |
| 2026-05-06 22:49 | 33.44875 | -84.68918 | 12006 ft | 290 kts | 40° |
| 2026-05-06 22:49 | 33.46311 | -84.67244 | 12136 ft | 290 kts | 40° |
| 2026-05-06 22:50 | 33.47777 | -84.65546 | 12058 ft | 293 kts | 40° |
| 2026-05-06 22:50 | 33.49233 | -84.63854 | 12011 ft | 291 kts | 40° |
| 2026-05-06 22:50 | 33.50685 | -84.62153 | 12002 ft | 291 kts | 42° |
| 2026-05-06 22:50 | 33.51894 | -84.60205 | 11950 ft | 295 kts | 64° |
| 2026-05-06 22:51 | 33.52373 | -84.57830 | 11931 ft | 295 kts | 86° |
| 2026-05-06 22:51 | 33.52527 | -84.55368 | 11424 ft | 297 kts | 86° |
| 2026-05-06 22:51 | 33.52825 | -84.52951 | 10727 ft | 295 kts | 81° |
| 2026-05-06 22:51 | 33.53203 | -84.50539 | 10041 ft | 293 kts | 81° |
| 2026-05-06 22:52 | 33.53485 | -84.48161 | 9494 ft | 284 kts | 85° |
| 2026-05-06 22:52 | 33.53629 | -84.45837 | 8943 ft | 277 kts | 90° |
| 2026-05-06 22:52 | 33.53689 | -84.43542 | 8395 ft | 274 kts | 91° |
| 2026-05-06 22:52 | 33.53717 | -84.41282 | 7856 ft | 269 kts | 92° |
| 2026-05-06 22:53 | 33.53737 | -84.39051 | 7313 ft | 266 kts | 92° |
| 2026-05-06 22:53 | 33.53756 | -84.36857 | 6942 ft | 259 kts | 92° |
| 2026-05-06 22:53 | 33.53770 | -84.34704 | 6713 ft | 258 kts | 93° |
| 2026-05-06 22:53 | 33.53830 | -84.32554 | 6501 ft | 258 kts | 90° |
| 2026-05-06 22:54 | 33.53930 | -84.30415 | 6213 ft | 257 kts | 89° |
| 2026-05-06 22:54 | 33.54036 | -84.28281 | 5699 ft | 255 kts | 90° |
| 2026-05-06 22:54 | 33.54151 | -84.26170 | 5190 ft | 252 kts | 90° |
| 2026-05-06 22:54 | 33.54276 | -84.24097 | 4796 ft | 247 kts | 89° |
| 2026-05-06 22:55 | 33.54406 | -84.22046 | 4551 ft | 246 kts | 89° |
| 2026-05-06 22:55 | 33.54537 | -84.19993 | 4331 ft | 247 kts | 89° |
| 2026-05-06 22:55 | 33.54906 | -84.17995 | 4062 ft | 249 kts | 65° |
| 2026-05-06 22:55 | 33.56026 | -84.16429 | 3837 ft | 249 kts | 33° |
| 2026-05-06 22:56 | 33.57605 | -84.15702 | 3701 ft | 243 kts | 6° |
| 2026-05-06 22:56 | 33.59252 | -84.15693 | 3546 ft | 234 kts | 341° |
| 2026-05-06 22:56 | 33.60619 | -84.16609 | 3402 ft | 221 kts | 311° |
| 2026-05-06 22:56 | 33.61553 | -84.18006 | 3325 ft | 216 kts | 299° |
| 2026-05-06 22:57 | 33.62343 | -84.19531 | 3236 ft | 215 kts | 295° |
| 2026-05-06 22:57 | 33.63032 | -84.21107 | 3091 ft | 211 kts | 285° |
| 2026-05-06 22:57 | 33.63239 | -84.22807 | 3035 ft | 206 kts | 268° |
| 2026-05-06 22:57 | 33.63188 | -84.24528 | 3031 ft | 207 kts | 265° |
| 2026-05-06 22:58 | 33.63151 | -84.26253 | 3015 ft | 208 kts | 266° |
| 2026-05-06 22:58 | 33.63149 | -84.27958 | 2997 ft | 195 kts | 267° |
| 2026-05-06 22:58 | 33.63156 | -84.29485 | 2960 ft | 176 kts | 266° |
| 2026-05-06 22:58 | 33.63155 | -84.30945 | 2731 ft | 173 kts | 266° |
| 2026-05-06 22:59 | 33.63156 | -84.32394 | 2524 ft | 174 kts | 265° |
| 2026-05-06 22:59 | 33.63158 | -84.33802 | 2298 ft | 163 kts | 268° |
| 2026-05-06 22:59 | 33.63162 | -84.35101 | 2114 ft | 147 kts | 269° |
| 2026-05-06 22:59 | 33.63167 | -84.36283 | 1886 ft | 139 kts | 265° |
| 2026-05-06 23:00 | 33.63173 | -84.37441 | 1761 ft | 138 kts | 266° |
| 2026-05-06 23:00 | 33.63169 | -84.38592 | 1612 ft | 142 kts | 266° |
| 2026-05-06 23:00 | 33.63177 | -84.39767 | 1414 ft | 138 kts | 267° |
| 2026-05-06 23:00 | 33.63172 | -84.40910 | 1225 ft | 137 kts | 269° |
| 2026-05-06 23:01 | 33.63185 | -84.42054 | 1036 ft | 136 kts | 264° |
| 2026-05-06 23:01 | 33.63181 | -84.43077 | 1014 ft | 100 kts | 271° |
| 2026-05-06 23:01 | 33.63182 | -84.43745 | 1011 ft | 62 kts | 270° |
| 2026-05-06 23:01 | 33.63185 | -84.44046 | 1010 ft | 25 kts | 278° |
| 2026-05-06 23:02 | 33.63242 | -84.44202 | 1010 ft | 18 kts | 305° |
| 2026-05-06 23:02 | 33.63326 | -84.44267 | 1011 ft | 12 kts | 3° |
| 2026-05-06 23:02 | 33.63369 | -84.44225 | 1011 ft | 9 kts | 55° |
| 2026-05-06 23:02 | 33.63428 | -84.44197 | 1011 ft | 11 kts | 1° |
| 2026-05-06 23:03 | 33.63507 | -84.44194 | 1012 ft | 12 kts | 1° |
| 2026-05-06 23:03 | 33.63579 | -84.44151 | 1012 ft | 13 kts | 73° |
| 2026-05-06 23:03 | 33.63581 | -84.44059 | 1012 ft | 12 kts | 90° |
| 2026-05-06 23:03 | 33.63581 | -84.43945 | 1012 ft | 15 kts | 89° |
| 2026-05-06 23:04 | 33.63581 | -84.43818 | 1011 ft | 11 kts | 90° |
| 2026-05-06 23:04 | 33.63604 | -84.43756 | 1011 ft | 10 kts | 22° |
| 2026-05-06 23:04 | 33.63675 | -84.43768 | 1011 ft | 11 kts | 339° |
| 2026-05-06 23:04 | 33.63736 | -84.43773 | 1011 ft | 2 kts | 9° |
| 2026-05-06 23:05 | 33.63765 | -84.43779 | 1011 ft | 8 kts | 351° |
| 2026-05-06 23:05 | 33.63830 | -84.43796 | 1011 ft | 10 kts | 325° |
| 2026-05-06 23:05 | 33.63843 | -84.43849 | 1011 ft | 3 kts | 266° |
| 2026-05-06 23:05 | 33.63842 | -84.43857 | 1011 ft | 0 kts | 268° |